createdAt,value
2019-05-18T00:01:43.724Z,9.06
2019-05-18T00:04:15.865Z,9.09
2019-05-18T00:06:48.531Z,8.99
2019-05-18T00:09:21.486Z,8.97
2019-05-18T00:11:54.418Z,8.97
2019-05-18T00:14:26.543Z,8.92
2019-05-18T00:16:59.160Z,8.76
2019-05-18T00:19:34.294Z,8.63
2019-05-18T00:22:06.924Z,8.61
2019-05-18T00:24:38.962Z,8.59
2019-05-18T00:27:11.367Z,8.62
2019-05-18T00:29:44.646Z,8.49
2019-05-18T00:32:17.249Z,8.66
2019-05-18T00:34:48.907Z,8.56
2019-05-18T00:37:21.121Z,8.53
2019-05-18T00:39:53.758Z,8.54
2019-05-18T00:42:25.305Z,8.35
2019-05-18T00:44:57.641Z,8.36
2019-05-18T00:47:40.820Z,8.30
2019-05-18T00:50:05.965Z,8.33
2019-05-18T00:52:38.967Z,8.41
2019-05-18T00:55:11.793Z,8.28
2019-05-18T00:57:44.948Z,8.33
2019-05-18T01:00:16.447Z,8.14
2019-05-18T01:02:48.548Z,8.06
2019-05-18T01:05:20.942Z,7.94
2019-05-18T01:07:53.308Z,8.01
2019-05-18T01:10:26.066Z,8.05
2019-05-18T01:12:58.495Z,8.06
2019-05-18T01:15:31.276Z,8.03
2019-05-18T01:18:03.393Z,8.04
2019-05-18T01:20:36.118Z,8.05
2019-05-18T01:23:08.515Z,7.91
2019-05-18T01:25:41.145Z,7.68
2019-05-18T01:28:13.572Z,7.63
2019-05-18T01:30:46.333Z,7.61
2019-05-18T01:33:18.418Z,7.55
2019-05-18T01:35:51.506Z,7.42
2019-05-18T01:38:23.841Z,7.43
2019-05-18T01:40:55.892Z,7.33
2019-05-18T01:43:28.612Z,7.34
2019-05-18T01:46:01.112Z,7.28
2019-05-18T01:48:34.185Z,7.30
2019-05-18T01:51:07.007Z,7.37
2019-05-18T01:53:39.342Z,7.39
2019-05-18T01:56:11.501Z,7.33
2019-05-18T01:58:43.855Z,7.23
2019-05-18T02:01:16.264Z,7.12
2019-05-18T02:03:48.642Z,7.10
2019-05-18T02:06:21.690Z,7.04
2019-05-18T02:08:54.126Z,7.14
2019-05-18T02:11:27.323Z,7.19
2019-05-18T02:14:00.559Z,7.22
2019-05-18T02:16:33.338Z,7.20
2019-05-18T02:19:06.080Z,7.17
2019-05-18T02:21:38.620Z,7.08
2019-05-18T02:24:13.514Z,6.96
2019-05-18T02:26:47.875Z,6.94
2019-05-18T02:29:20.583Z,6.87
2019-05-18T02:33:07.936Z,6.86
2019-05-18T02:36:35.114Z,6.84
2019-05-18T02:39:09.807Z,6.77
2019-05-18T02:41:43.275Z,6.75
2019-05-18T02:44:14.444Z,6.60
2019-05-18T02:46:46.752Z,6.59
2019-05-18T02:49:19.274Z,6.53
2019-05-18T02:51:52.278Z,6.55
2019-05-18T02:54:24.138Z,6.49
2019-05-18T02:56:57.613Z,6.41
2019-05-18T02:59:28.682Z,6.42
2019-05-18T03:02:01.620Z,6.41
2019-05-18T03:04:34.738Z,6.43
2019-05-18T03:07:07.114Z,6.39
2019-05-18T03:09:39.178Z,6.31
2019-05-18T03:12:12.078Z,6.23
2019-05-18T03:14:44.780Z,6.26
2019-05-18T03:17:17.852Z,6.22
2019-05-18T03:19:50.759Z,6.12
2019-05-18T03:22:23.180Z,6.15
2019-05-18T03:24:57.470Z,6.13
2019-05-18T03:27:30.647Z,6.11
2019-05-18T03:30:02.842Z,6.09
2019-05-18T03:32:34.963Z,6.06
2019-05-18T03:35:08.133Z,6.03
2019-05-18T03:37:41.687Z,6.02
2019-05-18T03:40:14.840Z,6.21
2019-05-18T03:42:47.850Z,6.23
2019-05-18T03:45:20.342Z,6.05
2019-05-18T03:47:52.459Z,6.22
2019-05-18T03:50:24.968Z,6.19
2019-05-18T03:52:57.662Z,6.24
2019-05-18T03:55:30.311Z,6.19
2019-05-18T03:58:03.303Z,6.20
2019-05-18T04:00:37.920Z,6.15
2019-05-18T04:03:11.170Z,6.14
2019-05-18T04:05:44.139Z,6.25
2019-05-18T04:08:17.093Z,6.25
2019-05-18T04:10:49.614Z,6.25
2019-05-18T04:13:24.006Z,6.28
2019-05-18T04:15:57.141Z,6.20
2019-05-18T04:18:29.533Z,6.23
2019-05-18T04:21:08.174Z,6.24
2019-05-18T04:23:41.274Z,6.33
2019-05-18T04:26:17.423Z,6.36
2019-05-18T04:28:50.265Z,6.31
2019-05-18T04:31:22.711Z,6.44
2019-05-18T04:33:57.549Z,6.52
2019-05-18T04:36:33.935Z,6.68
2019-05-18T04:39:08.249Z,6.67
2019-05-18T04:41:40.875Z,6.85
2019-05-18T04:44:13.245Z,6.98
2019-05-18T04:46:45.760Z,7.07
2019-05-18T04:49:18.488Z,7.10
2019-05-18T04:51:51.013Z,7.14
2019-05-18T04:54:23.433Z,7.30
2019-05-18T04:57:02.059Z,7.23
2019-05-18T04:59:35.552Z,7.38
2019-05-18T05:02:06.720Z,7.47
2019-05-18T05:04:38.746Z,7.49
2019-05-18T05:07:12.065Z,7.58
2019-05-18T05:09:43.170Z,7.60
2019-05-18T05:12:15.316Z,7.86
2019-05-18T05:14:47.422Z,7.90
2019-05-18T05:17:20.737Z,7.96
2019-05-18T05:19:53.092Z,8.17
2019-05-18T05:22:26.384Z,8.24
2019-05-18T05:24:57.351Z,8.34
2019-05-18T05:27:38.678Z,8.48
2019-05-18T05:30:13.492Z,8.74
2019-05-18T05:32:51.434Z,8.73
2019-05-18T05:35:24.546Z,8.91
2019-05-18T05:37:57.150Z,9.02
2019-05-18T05:40:29.713Z,9.20
2019-05-18T05:43:02.386Z,9.28
2019-05-18T05:45:34.860Z,9.38
2019-05-18T05:48:07.483Z,9.58
2019-05-18T05:50:40.057Z,9.77
2019-05-18T05:53:13.088Z,9.99
2019-05-18T05:55:46.000Z,10.25
2019-05-18T05:58:17.153Z,10.51
2019-05-18T06:00:48.823Z,10.62
2019-05-18T06:03:22.772Z,10.80
2019-05-18T06:05:56.000Z,10.91
2019-05-18T06:08:28.771Z,11.03
2019-05-18T06:11:00.904Z,11.26
2019-05-18T06:13:33.266Z,11.46
2019-05-18T06:16:05.462Z,11.69
2019-05-18T06:18:37.395Z,11.69
2019-05-18T06:21:09.960Z,11.76
2019-05-18T06:23:42.900Z,12.06
2019-05-18T06:26:16.176Z,12.19
2019-05-18T06:28:49.172Z,12.63
2019-05-18T06:31:23.243Z,12.69
2019-05-18T06:33:56.446Z,12.91
2019-05-18T06:36:31.094Z,13.06
2019-05-18T06:39:04.296Z,12.73
2019-05-18T06:41:39.027Z,13.21
2019-05-18T06:44:10.613Z,13.71
2019-05-18T06:46:42.801Z,13.36
2019-05-18T06:49:15.271Z,13.96
2019-05-18T06:51:47.779Z,14.38
2019-05-18T06:54:20.182Z,14.11
2019-05-18T06:56:54.103Z,14.56
2019-05-18T06:59:29.526Z,14.65
2019-05-18T07:02:02.796Z,15.29
2019-05-18T07:04:33.936Z,15.61
2019-05-18T07:07:06.259Z,15.15
2019-05-18T07:09:38.741Z,15.22
2019-05-18T07:12:11.624Z,15.45
2019-05-18T07:14:44.445Z,15.81
2019-05-18T07:17:16.717Z,15.78
2019-05-18T07:19:50.034Z,15.74
2019-05-18T07:22:22.410Z,16.11
2019-05-18T07:24:55.344Z,16.72
2019-05-18T07:27:28.368Z,17.27
2019-05-18T07:30:00.894Z,17.28
2019-05-18T07:32:33.520Z,17.28
2019-05-18T07:35:07.743Z,18.18
2019-05-18T07:37:39.591Z,18.33
2019-05-18T07:40:14.330Z,17.80
2019-05-18T07:42:46.796Z,18.19
2019-05-18T07:45:22.399Z,18.61
2019-05-18T07:47:54.737Z,19.14
2019-05-18T07:50:29.330Z,18.90
2019-05-18T07:53:10.295Z,18.68
2019-05-18T07:55:44.612Z,19.59
2019-05-18T07:58:16.996Z,18.68
2019-05-18T08:00:49.898Z,18.25
2019-05-18T08:03:22.675Z,18.88
2019-05-18T08:05:53.439Z,18.31
2019-05-18T08:08:26.369Z,19.31
2019-05-18T08:10:58.104Z,18.38
2019-05-18T08:13:31.132Z,18.98
2019-05-18T08:16:05.108Z,20.60
2019-05-18T08:18:38.211Z,21.78
2019-05-18T08:21:10.681Z,21.88
2019-05-18T08:23:43.460Z,20.93
2019-05-18T08:26:15.947Z,21.17
2019-05-18T08:28:48.106Z,21.73
2019-05-18T08:31:20.989Z,22.26
2019-05-18T08:33:53.462Z,22.04
2019-05-18T08:36:26.400Z,20.94
2019-05-18T08:39:01.029Z,21.92
2019-05-18T08:41:33.402Z,22.82
2019-05-18T08:44:05.645Z,22.23
2019-05-18T08:46:37.672Z,23.23
2019-05-18T08:49:09.922Z,23.36
2019-05-18T08:51:42.014Z,23.32
2019-05-18T08:54:14.700Z,23.69
2019-05-18T08:56:47.529Z,23.63
2019-05-18T08:59:20.056Z,24.06
2019-05-18T09:01:52.766Z,24.14
2019-05-18T09:04:26.841Z,24.30
2019-05-18T09:06:58.921Z,24.17
2019-05-18T09:09:30.064Z,23.81
2019-05-18T09:12:03.727Z,24.78
2019-05-18T09:14:37.888Z,24.61
2019-05-18T09:17:10.435Z,24.52
2019-05-18T09:19:43.619Z,24.05
2019-05-18T09:22:23.120Z,25.62
2019-05-18T09:24:50.670Z,24.70
2019-05-18T09:27:23.230Z,25.56
2019-05-18T09:29:56.303Z,23.87
2019-05-18T09:32:28.503Z,23.83
2019-05-18T09:35:03.064Z,24.51
2019-05-18T09:37:35.678Z,25.54
2019-05-18T09:40:08.786Z,25.70
2019-05-18T09:42:42.043Z,26.01
2019-05-18T09:45:15.309Z,26.05
2019-05-18T09:47:48.422Z,25.86
2019-05-18T09:50:20.645Z,26.41
2019-05-18T09:52:52.960Z,26.24
2019-05-18T09:55:25.530Z,26.63
2019-05-18T09:58:01.376Z,26.47
2019-05-18T10:00:38.929Z,27.32
2019-05-18T10:03:10.237Z,26.98
2019-05-18T10:05:43.304Z,26.50
2019-05-18T10:08:18.966Z,26.02
2019-05-18T10:10:54.226Z,26.15
2019-05-18T10:13:27.269Z,26.84
2019-05-18T10:16:01.457Z,25.92
2019-05-18T10:18:34.311Z,27.39
2019-05-18T10:21:06.357Z,26.58
2019-05-18T10:23:40.456Z,25.57
2019-05-18T10:26:13.082Z,25.91
2019-05-18T10:28:45.241Z,26.82
2019-05-18T10:31:17.363Z,27.75
2019-05-18T10:33:49.619Z,27.68
2019-05-18T10:36:23.985Z,28.12
2019-05-18T10:38:57.258Z,27.79
2019-05-18T10:41:29.417Z,27.46
2019-05-18T10:44:02.230Z,26.96
2019-05-18T10:46:35.698Z,25.57
2019-05-18T10:49:09.637Z,26.81
2019-05-18T10:51:42.093Z,27.67
2019-05-18T10:54:16.952Z,28.65
2019-05-18T10:56:50.312Z,28.80
2019-05-18T10:59:22.929Z,27.75
2019-05-18T11:01:55.402Z,27.43
2019-05-18T11:04:27.764Z,27.58
2019-05-18T11:06:59.899Z,28.57
2019-05-18T11:09:31.705Z,27.55
2019-05-18T11:12:03.811Z,28.15
2019-05-18T11:14:36.169Z,28.03
2019-05-18T11:17:08.497Z,29.73
2019-05-18T11:19:40.562Z,29.54
2019-05-18T11:22:12.722Z,26.18
2019-05-18T11:24:45.929Z,28.80
2019-05-18T11:27:18.318Z,28.53
2019-05-18T11:29:52.409Z,27.17
2019-05-18T11:32:24.507Z,29.02
2019-05-18T11:34:57.795Z,28.93
2019-05-18T11:37:30.237Z,30.64
2019-05-18T11:40:04.619Z,29.94
2019-05-18T11:42:36.981Z,30.45
2019-05-18T11:45:11.078Z,29.53
2019-05-18T11:47:43.264Z,30.60
2019-05-18T11:50:17.874Z,29.82
2019-05-18T11:52:49.844Z,30.51
2019-05-18T11:55:31.557Z,30.68
2019-05-18T11:58:02.784Z,31.05
2019-05-18T12:00:35.482Z,29.48
2019-05-18T12:03:09.337Z,27.80
2019-05-18T12:05:44.313Z,28.48
2019-05-18T12:08:16.361Z,26.52
2019-05-18T12:10:48.777Z,27.37
2019-05-18T12:13:22.496Z,29.10
2019-05-18T12:15:54.354Z,30.03
2019-05-18T12:18:26.489Z,27.39
2019-05-18T12:20:59.009Z,25.53
2019-05-18T12:23:31.407Z,24.91
2019-05-18T12:26:04.061Z,26.08
2019-05-18T12:28:36.803Z,29.26
2019-05-18T12:31:08.741Z,29.57
2019-05-18T12:33:40.837Z,29.78
2019-05-18T12:36:15.574Z,31.26
2019-05-18T12:38:47.054Z,30.45
2019-05-18T12:41:21.425Z,29.59
2019-05-18T12:43:53.923Z,28.23
2019-05-18T12:46:26.445Z,27.87
2019-05-18T12:48:58.689Z,28.74
2019-05-18T12:51:33.745Z,30.39
2019-05-18T12:54:06.885Z,29.02
2019-05-18T12:56:39.575Z,25.20
2019-05-18T12:59:11.647Z,28.87
2019-05-18T13:01:43.771Z,28.37
2019-05-18T13:04:16.554Z,26.25
2019-05-18T13:06:49.902Z,26.49
2019-05-18T13:09:27.329Z,28.78
2019-05-18T13:11:59.412Z,29.20
2019-05-18T13:14:31.408Z,28.74
2019-05-18T13:17:03.650Z,26.54
2019-05-18T13:19:35.724Z,26.38
2019-05-18T13:22:07.819Z,28.42
2019-05-18T13:24:45.643Z,29.48
2019-05-18T13:27:17.821Z,28.59
2019-05-18T13:29:50.601Z,29.09
2019-05-18T13:32:24.126Z,28.76
2019-05-18T13:34:56.758Z,29.95
2019-05-18T13:37:30.539Z,30.54
2019-05-18T13:40:03.922Z,29.51
2019-05-18T13:42:37.109Z,29.90
2019-05-18T13:45:13.000Z,28.96
2019-05-18T13:47:45.081Z,29.93
2019-05-18T13:50:17.559Z,29.23
2019-05-18T13:52:49.694Z,31.06
2019-05-18T13:55:22.201Z,31.86
2019-05-18T13:57:55.117Z,30.16
2019-05-18T14:00:26.973Z,29.30
2019-05-18T14:03:00.382Z,26.90
2019-05-18T14:05:32.490Z,28.43
2019-05-18T14:08:06.174Z,27.18
2019-05-18T14:10:49.326Z,28.84
2019-05-18T14:13:22.105Z,27.69
2019-05-18T14:15:54.602Z,26.67
2019-05-18T14:18:43.491Z,25.59
2019-05-18T14:21:15.895Z,26.37
2019-05-18T14:23:48.048Z,27.08
2019-05-18T14:26:20.438Z,27.11
2019-05-18T14:28:52.333Z,26.82
2019-05-18T14:31:24.379Z,26.07
2019-05-18T14:33:58.654Z,26.40
2019-05-18T14:36:31.038Z,26.75
2019-05-18T14:39:06.498Z,26.06
2019-05-18T14:41:42.446Z,25.41
2019-05-18T14:44:14.391Z,25.45
2019-05-18T14:46:47.710Z,25.92
2019-05-18T14:49:20.170Z,25.33
2019-05-18T14:51:52.799Z,24.94
2019-05-18T14:54:25.961Z,25.44
2019-05-18T14:56:58.308Z,25.82
2019-05-18T14:59:30.649Z,26.17
2019-05-18T15:02:03.004Z,25.65
2019-05-18T15:04:35.546Z,24.95
2019-05-18T15:07:08.155Z,24.88
2019-05-18T15:09:40.934Z,24.57
2019-05-18T15:12:13.767Z,24.31
2019-05-18T15:14:47.171Z,24.84
2019-05-18T15:17:20.273Z,25.10
2019-05-18T15:19:57.119Z,25.36
2019-05-18T15:22:29.477Z,25.01
2019-05-18T15:25:00.519Z,25.50
2019-05-18T15:27:32.959Z,24.55
2019-05-18T15:30:04.835Z,24.31
2019-05-18T15:32:37.436Z,26.07
2019-05-18T15:35:10.639Z,26.99
2019-05-18T15:37:43.821Z,26.23
2019-05-18T15:40:17.044Z,25.21
2019-05-18T15:42:50.188Z,25.13
2019-05-18T15:45:24.817Z,24.88
2019-05-18T15:48:00.258Z,26.46
2019-05-18T15:50:34.771Z,26.35
2019-05-18T15:53:07.848Z,27.07
2019-05-18T15:55:42.808Z,27.48
2019-05-18T15:58:14.877Z,27.83
2019-05-18T16:00:46.503Z,28.25
2019-05-18T16:03:19.160Z,27.71
2019-05-18T16:05:51.299Z,26.13
2019-05-18T16:08:23.950Z,26.76
2019-05-18T16:10:57.716Z,26.76
2019-05-18T16:13:30.206Z,26.28
2019-05-18T16:16:02.685Z,25.51
2019-05-18T16:18:35.087Z,25.30
2019-05-18T16:21:08.442Z,25.51
2019-05-18T16:23:40.615Z,26.27
2019-05-18T16:26:21.115Z,25.95
2019-05-18T16:28:47.298Z,25.97
2019-05-18T16:31:20.810Z,25.63
2019-05-18T16:33:53.474Z,24.92
2019-05-18T16:36:25.970Z,24.27
2019-05-18T16:39:00.888Z,24.63
2019-05-18T16:41:33.550Z,24.06
2019-05-18T16:44:06.148Z,24.36
2019-05-18T16:46:39.016Z,23.95
2019-05-18T16:49:11.676Z,24.38
2019-05-18T16:51:44.756Z,24.44
2019-05-18T16:54:19.089Z,24.18
2019-05-18T16:56:54.221Z,23.82
2019-05-18T16:59:29.817Z,23.82
2019-05-18T17:02:02.503Z,23.26
2019-05-18T17:04:35.120Z,23.80
2019-05-18T17:07:08.064Z,23.66
2019-05-18T17:09:40.670Z,23.33
2019-05-18T17:12:14.071Z,22.62
2019-05-18T17:14:48.400Z,22.77
2019-05-18T17:17:23.490Z,22.76
2019-05-18T17:19:56.554Z,22.56
2019-05-18T17:22:31.630Z,22.55
2019-05-18T17:25:03.671Z,22.39
2019-05-18T17:27:37.403Z,22.60
2019-05-18T17:30:11.070Z,22.31
2019-05-18T17:33:07.242Z,21.91
2019-05-18T17:35:39.987Z,21.71
2019-05-18T17:38:12.486Z,21.91
2019-05-18T17:40:44.554Z,21.64
2019-05-18T17:43:18.781Z,21.70
2019-05-18T17:45:51.165Z,21.93
2019-05-18T17:48:28.288Z,21.63
2019-05-18T17:51:00.477Z,21.77
2019-05-18T17:53:32.950Z,21.86
2019-05-18T17:56:05.625Z,21.77
2019-05-18T17:58:39.129Z,21.61
2019-05-18T18:01:14.216Z,21.47
2019-05-18T18:03:46.832Z,20.89
2019-05-18T18:06:19.511Z,20.84
2019-05-18T18:08:52.525Z,21.27
2019-05-18T18:11:25.076Z,20.73
2019-05-18T18:13:57.255Z,20.78
2019-05-18T18:16:29.644Z,20.78
2019-05-18T18:19:02.408Z,20.34
2019-05-18T18:21:35.642Z,20.19
2019-05-18T18:24:06.417Z,20.36
2019-05-18T18:26:40.009Z,20.46
2019-05-18T18:29:12.335Z,20.38
2019-05-18T18:31:45.316Z,20.00
2019-05-18T18:34:18.427Z,19.86
2019-05-18T18:36:50.601Z,19.76
2019-05-18T18:39:22.962Z,19.86
2019-05-18T18:41:56.118Z,19.67
2019-05-18T18:44:29.104Z,19.63
2019-05-18T18:47:02.223Z,19.58
2019-05-18T18:49:34.594Z,19.37
2019-05-18T18:52:07.240Z,19.39
2019-05-18T18:54:39.596Z,19.42
2019-05-18T18:57:13.850Z,19.15
2019-05-18T18:59:45.911Z,19.06
2019-05-18T19:02:18.661Z,19.00
2019-05-18T19:04:49.742Z,18.84
2019-05-18T19:07:23.739Z,18.70
2019-05-18T19:09:55.831Z,18.77
2019-05-18T19:12:28.477Z,18.57
2019-05-18T19:15:05.574Z,18.43
2019-05-18T19:17:38.308Z,18.26
2019-05-18T19:20:11.824Z,18.10
2019-05-18T19:22:44.664Z,17.99
2019-05-18T19:25:17.305Z,17.95
2019-05-18T19:27:54.884Z,17.78
2019-05-18T19:30:25.347Z,17.49
2019-05-18T19:33:02.820Z,17.31
2019-05-18T19:35:35.230Z,17.29
2019-05-18T19:38:10.619Z,17.20
2019-05-18T19:40:44.873Z,17.08
2019-05-18T19:43:25.192Z,16.78
2019-05-18T19:45:55.586Z,16.65
2019-05-18T19:48:27.888Z,16.44
2019-05-18T19:51:00.935Z,16.48
2019-05-18T19:53:33.037Z,16.34
2019-05-18T19:56:05.673Z,16.32
2019-05-18T19:58:39.065Z,15.98
2019-05-18T20:01:12.743Z,15.89
2019-05-18T20:03:45.512Z,15.78
2019-05-18T20:06:17.826Z,15.62
2019-05-18T20:08:50.993Z,15.53
2019-05-18T20:11:23.678Z,15.40
2019-05-18T20:13:56.855Z,15.37
2019-05-18T20:16:29.627Z,15.43
2019-05-18T20:19:02.141Z,15.24
2019-05-18T20:21:34.990Z,15.07
2019-05-18T20:24:08.062Z,14.95
2019-05-18T20:26:41.115Z,14.86
2019-05-18T20:29:14.114Z,14.78
2019-05-18T20:31:47.212Z,14.72
2019-05-18T20:34:20.654Z,14.68
2019-05-18T20:36:54.684Z,14.70
2019-05-18T20:39:29.336Z,14.68
2019-05-18T20:42:02.527Z,14.52
2019-05-18T20:44:37.216Z,14.68
2019-05-18T20:47:09.600Z,14.35
2019-05-18T20:49:42.035Z,14.30
2019-05-18T20:52:17.595Z,14.25
2019-05-18T20:54:50.540Z,14.22
2019-05-18T20:57:25.475Z,14.28
2019-05-18T20:59:58.213Z,14.21
2019-05-18T21:02:34.433Z,14.09
2019-05-18T21:05:07.920Z,14.02
2019-05-18T21:07:40.734Z,14.12
2019-05-18T21:10:14.783Z,14.09
2019-05-18T21:12:47.757Z,13.90
2019-05-18T21:15:21.193Z,13.81
2019-05-18T21:17:54.750Z,13.91
2019-05-18T21:20:27.717Z,13.69
2019-05-18T21:23:00.128Z,13.71
2019-05-18T21:25:33.000Z,13.79
2019-05-18T21:28:05.795Z,13.90
2019-05-18T21:30:39.566Z,13.69
2019-05-18T21:33:11.979Z,13.59
2019-05-18T21:35:44.107Z,13.70
2019-05-18T21:38:16.551Z,13.75
2019-05-18T21:40:50.000Z,13.79
2019-05-18T21:43:23.109Z,13.78
2019-05-18T21:45:56.940Z,13.77
2019-05-18T21:48:29.706Z,13.72
2019-05-18T21:51:01.932Z,13.79
2019-05-18T21:53:34.866Z,13.73
2019-05-18T21:56:07.571Z,13.72
2019-05-18T21:58:40.272Z,13.59
2019-05-18T22:01:12.637Z,13.61
2019-05-18T22:03:48.075Z,13.58
2019-05-18T22:06:19.543Z,13.55
2019-05-18T22:08:54.385Z,13.54
2019-05-18T22:11:26.747Z,13.70
2019-05-18T22:14:00.437Z,13.52
2019-05-18T22:16:35.274Z,13.54
2019-05-18T22:19:08.089Z,13.50
2019-05-18T22:21:40.370Z,13.42
2019-05-18T22:24:13.012Z,13.45
2019-05-18T22:26:45.435Z,13.34
2019-05-18T22:29:19.311Z,13.27
2019-05-18T22:31:54.015Z,13.22
2019-05-18T22:34:26.396Z,13.22
2019-05-18T22:36:58.776Z,13.15
2019-05-18T22:39:32.096Z,13.08
2019-05-18T22:42:07.533Z,13.03
2019-05-18T22:44:40.342Z,13.03
2019-05-18T22:47:15.014Z,13.03
2019-05-18T22:49:47.746Z,12.98
2019-05-18T22:52:20.815Z,12.94
2019-05-18T22:54:56.011Z,12.95
2019-05-18T22:57:28.121Z,12.98
2019-05-18T23:00:01.152Z,13.01
2019-05-18T23:02:32.774Z,12.87
2019-05-18T23:05:05.630Z,12.74
2019-05-18T23:07:39.053Z,12.69
2019-05-18T23:10:12.495Z,12.63
2019-05-18T23:12:46.144Z,12.62
2019-05-18T23:15:18.738Z,12.58
2019-05-18T23:17:51.240Z,12.64
2019-05-18T23:20:24.342Z,12.60
2019-05-18T23:22:59.018Z,12.47
2019-05-18T23:25:33.558Z,12.41
2019-05-18T23:28:05.930Z,12.22
2019-05-18T23:30:39.069Z,12.09
2019-05-18T23:33:12.316Z,12.07
2019-05-18T23:35:44.720Z,12.18
2019-05-18T23:38:16.717Z,12.29
2019-05-18T23:40:49.982Z,12.27
2019-05-18T23:43:22.176Z,12.11
2019-05-18T23:45:54.817Z,12.01
2019-05-18T23:48:26.883Z,11.89
2019-05-18T23:51:00.615Z,11.72
2019-05-18T23:53:34.028Z,11.67
2019-05-18T23:56:06.159Z,11.78
2019-05-18T23:58:38.302Z,11.69
